Ana Sayfa
METAR-TAF:

METAR-TAF

Havaalanları :

Forrest, Avustralya

Enlem: 30-50-18S, Boylam: 128-06-54E, yükseklik: 156 m

Güncel hava durumu gözlemi

Rapor saat 08:00 UTC de 38 dakika önce yapıldı.
Rüzgar doğudan 6 kt, doğu/kuzeydoğu ve doğu/güneydoğu arasında değişken
Sıcaklık 14°C
Nem 41%
Basınç 1026 hPa
Görüş mesafesi 10 km veya daha fazla
5200 ft yükseklikte parçalı bulutlu

METAR: YFRT 180800Z AUTO 10006KT 060V120 9999 // SCT052 14/01 Q1026

Saat: 16:38 (08:38 UTC)

Tahmin

Rapor saat 06:41 UTC de 1 saat ve 57 dakika önce yapıldı.
Ayın 18'si saat 08 UTC'den ayın 18'si saat 20 UTC'ye kadar geçerli Tahmin
Rüzgar doğu/güneydoğudan 5 kt
Görüş mesafesi 10 km veya daha fazla
1500 m altında bulut yok ve kümülonimbus yok

TAF: YFRT 180641Z 1808/1820 11005KT CAVOK

4.000'den fazla havaalanı için hava durumu gözlemleri ve tahminleri (METAR ve TAF raporları).

Kullanılabilir istasyonlar harita üzerinde sarı ve kırmızı noktalarla gösterilir.

İstasyonun adını görmek için fareyi noktanın üzerinde gezdirin.

Sonrasında hava gözlem ve tahminlerini görmek için tıklayın.

Haritayı değiştirmek için: yaklaştırmak için siyah artı işaretli yeşil düğmeye ve uzaklaştırmak için de eksi işaretli düğmeye hızla tıklayın; bitişik haritalar için yeşil okları kullanın.


METAR-TAF: